Willimantic River @ Coventry, Ct

Willimantic River at Coventry
 Total Drainage Area: 121 sq. miles 
 Drainage Area Controlled by Corps Dams: 0 sq. miles (0%) 
 Warning Flow/Stage: 1,175 cfs / 6.5 feet 
 Flood Flow/Stage: 2,800 cfs / 9.0 feet 
Date Time
(Eastern)
Stage
(ft)
Flow
(cfs)
CSM
(cfs / sq. mi.)
Jan-31 02:15 pm 4.38 412 3.4
Jan-31 01:15 pm 4.40 419 3.5
Jan-31 12:15 pm 4.41 423 3.5
Jan-31 11:15 am 4.40 419 3.5
Jan-31 10:15 am 4.41 423 3.5
Jan-31 09:15 am 4.42 427 3.5
Jan-31 08:15 am 4.41 423 3.5
Jan-31 07:15 am 4.43 431 3.6
Jan-31 06:15 am 4.42 427 3.5
Jan-31 05:15 am 4.44 434 3.6
Jan-31 04:15 am 4.43 431 3.6
Jan-31 03:15 am 4.43 431 3.6
Jan-31 02:15 am 4.46 442 3.7
Jan-31 01:15 am 4.45 438 3.6
Jan-31 12:15 am 4.47 446 3.7
Jan-30 11:15 pm 4.46 442 3.7
Jan-30 10:15 pm 4.46 442 3.7
Jan-30 09:15 pm 4.50 457 3.8
Jan-30 08:15 pm 4.48 449 3.7
Jan-30 07:15 pm 4.49 453 3.8
Jan-30 06:15 pm 4.49 453 3.8
Jan-30 05:15 pm 4.50 457 3.8
Jan-30 04:15 pm 4.50 457 3.8
Jan-30 03:15 pm 4.53 468 3.9
Jan-30 02:15 pm 4.52 465 3.8
Report Generated January 31, 2023 08:08 pm